sensor_id;sensor_type;location;lat;lon;timestamp;pressure;altitude;pressure_sealevel;temperature;humidity
63033;BME280;49121;38.932;-9.018;2023-03-04T00:02:00;111992.50;;;-145.11;69.44
63033;BME280;49121;38.932;-9.018;2023-03-04T00:04:01;111992.50;;;-145.11;69.80
63033;BME280;49121;38.932;-9.018;2023-03-04T00:06:02;111992.50;;;-145.11;70.29
63033;BME280;49121;38.932;-9.018;2023-03-04T00:08:03;111992.50;;;-145.11;70.64
63033;BME280;49121;38.932;-9.018;2023-03-04T00:10:04;111992.50;;;-145.11;70.77
63033;BME280;49121;38.932;-9.018;2023-03-04T00:12:05;111992.50;;;-145.11;71.16
63033;BME280;49121;38.932;-9.018;2023-03-04T00:14:07;111992.50;;;-145.11;71.51
63033;BME280;49121;38.932;-9.018;2023-03-04T00:16:08;111992.50;;;-145.11;72.13
63033;BME280;49121;38.932;-9.018;2023-03-04T00:18:09;111992.50;;;-145.11;72.51
63033;BME280;49121;38.932;-9.018;2023-03-04T00:20:11;111992.50;;;-145.11;72.86
63033;BME280;49121;38.932;-9.018;2023-03-04T00:22:12;111992.50;;;-145.11;73.11
63033;BME280;49121;38.932;-9.018;2023-03-04T00:24:12;111992.50;;;-145.11;73.47
63033;BME280;49121;38.932;-9.018;2023-03-04T00:26:13;111992.50;;;-145.11;73.62
63033;BME280;49121;38.932;-9.018;2023-03-04T00:28:16;111992.50;;;-145.11;73.91
63033;BME280;49121;38.932;-9.018;2023-03-04T00:30:16;111992.50;;;-145.11;74.14
63033;BME280;49121;38.932;-9.018;2023-03-04T00:32:35;111992.50;;;-145.11;74.31
63033;BME280;49121;38.932;-9.018;2023-03-04T00:34:55;111992.50;;;-145.11;74.92
63033;BME280;49121;38.932;-9.018;2023-03-04T00:36:55;111992.50;;;-145.11;75.28
63033;BME280;49121;38.932;-9.018;2023-03-04T00:39:00;111992.50;;;-145.11;75.46
63033;BME280;49121;38.932;-9.018;2023-03-04T00:41:02;111992.50;;;-145.11;75.49
63033;BME280;49121;38.932;-9.018;2023-03-04T00:43:03;111992.50;;;-145.11;75.88
63033;BME280;49121;38.932;-9.018;2023-03-04T00:45:04;111992.50;;;-145.11;75.72
63033;BME280;49121;38.932;-9.018;2023-03-04T00:47:05;111992.50;;;-145.11;76.15
63033;BME280;49121;38.932;-9.018;2023-03-04T00:49:06;111992.50;;;-145.11;76.10
63033;BME280;49121;38.932;-9.018;2023-03-04T00:51:06;111992.50;;;-145.11;76.16
63033;BME280;49121;38.932;-9.018;2023-03-04T00:55:26;111992.50;;;-145.11;76.43
63033;BME280;49121;38.932;-9.018;2023-03-04T00:57:27;111992.50;;;-145.11;76.29
63033;BME280;49121;38.932;-9.018;2023-03-04T00:59:30;111992.50;;;-145.11;76.53
63033;BME280;49121;38.932;-9.018;2023-03-04T01:01:34;111992.50;;;-145.11;76.55
63033;BME280;49121;38.932;-9.018;2023-03-04T01:03:35;111992.50;;;-145.11;76.46
63033;BME280;49121;38.932;-9.018;2023-03-04T01:05:36;111992.50;;;-145.11;76.23
63033;BME280;49121;38.932;-9.018;2023-03-04T01:07:37;111992.50;;;-145.11;76.41
63033;BME280;49121;38.932;-9.018;2023-03-04T01:09:37;111992.50;;;-145.11;76.49
63033;BME280;49121;38.932;-9.018;2023-03-04T01:11:38;111992.50;;;-145.11;76.64
63033;BME280;49121;38.932;-9.018;2023-03-04T01:13:39;111992.50;;;-145.11;76.75
63033;BME280;49121;38.932;-9.018;2023-03-04T01:15:39;111992.50;;;-145.11;76.40
63033;BME280;49121;38.932;-9.018;2023-03-04T01:17:40;111992.50;;;-145.11;76.63
63033;BME280;49121;38.932;-9.018;2023-03-04T01:19:41;111992.50;;;-145.11;76.36
63033;BME280;49121;38.932;-9.018;2023-03-04T01:21:42;111992.50;;;-145.11;76.62
63033;BME280;49121;38.932;-9.018;2023-03-04T01:23:43;111992.50;;;-145.11;76.63
63033;BME280;49121;38.932;-9.018;2023-03-04T01:25:43;111992.50;;;-145.11;76.49
63033;BME280;49121;38.932;-9.018;2023-03-04T01:27:44;111992.50;;;-145.11;76.24
63033;BME280;49121;38.932;-9.018;2023-03-04T01:29:45;111992.50;;;-145.11;76.24
63033;BME280;49121;38.932;-9.018;2023-03-04T01:31:48;111992.50;;;-145.11;76.14
63033;BME280;49121;38.932;-9.018;2023-03-04T01:33:49;111992.50;;;-145.11;76.03
63033;BME280;49121;38.932;-9.018;2023-03-04T01:35:49;111992.50;;;-145.11;75.95
63033;BME280;49121;38.932;-9.018;2023-03-04T01:37:50;111992.50;;;-145.11;76.21
63033;BME280;49121;38.932;-9.018;2023-03-04T01:39:51;111992.50;;;-145.11;76.19
63033;BME280;49121;38.932;-9.018;2023-03-04T01:41:51;111992.50;;;-145.11;76.43
63033;BME280;49121;38.932;-9.018;2023-03-04T01:43:55;111992.50;;;-145.11;77.15
63033;BME280;49121;38.932;-9.018;2023-03-04T01:45:57;111992.50;;;-145.11;76.87
63033;BME280;49121;38.932;-9.018;2023-03-04T01:47:59;111992.50;;;-145.11;77.23
63033;BME280;49121;38.932;-9.018;2023-03-04T01:50:02;111992.50;;;-145.11;77.86
63033;BME280;49121;38.932;-9.018;2023-03-04T01:52:04;111992.50;;;-145.11;77.61
63033;BME280;49121;38.932;-9.018;2023-03-04T01:54:05;111992.50;;;-145.11;77.83
63033;BME280;49121;38.932;-9.018;2023-03-04T01:58:44;111992.50;;;-145.11;78.53
63033;BME280;49121;38.932;-9.018;2023-03-04T02:00:45;111992.50;;;-145.11;79.04
63033;BME280;49121;38.932;-9.018;2023-03-04T02:02:53;111992.50;;;-145.11;78.77
63033;BME280;49121;38.932;-9.018;2023-03-04T02:04:54;111992.50;;;-145.11;78.99
63033;BME280;49121;38.932;-9.018;2023-03-04T02:06:56;111992.50;;;-145.11;78.98
63033;BME280;49121;38.932;-9.018;2023-03-04T02:08:58;111992.50;;;-145.11;79.21
63033;BME280;49121;38.932;-9.018;2023-03-04T02:10:59;111992.50;;;-145.11;79.29
63033;BME280;49121;38.932;-9.018;2023-03-04T02:13:00;111992.50;;;-145.11;79.22
63033;BME280;49121;38.932;-9.018;2023-03-04T02:15:19;111992.50;;;-145.11;79.30
63033;BME280;49121;38.932;-9.018;2023-03-04T02:17:27;111992.50;;;-145.11;79.23
63033;BME280;49121;38.932;-9.018;2023-03-04T02:19:55;111992.50;;;-145.11;79.45
63033;BME280;49121;38.932;-9.018;2023-03-04T02:22:03;111992.50;;;-145.11;79.37
63033;BME280;49121;38.932;-9.018;2023-03-04T02:26:32;111992.50;;;-145.11;79.11
63033;BME280;49121;38.932;-9.018;2023-03-04T02:28:35;111992.50;;;-145.11;79.12
63033;BME280;49121;38.932;-9.018;2023-03-04T02:30:35;111992.50;;;-145.11;79.06
63033;BME280;49121;38.932;-9.018;2023-03-04T02:32:36;111992.50;;;-145.11;78.68
63033;BME280;49121;38.932;-9.018;2023-03-04T02:34:47;111992.50;;;-145.11;78.71
63033;BME280;49121;38.932;-9.018;2023-03-04T02:37:09;111992.50;;;-145.11;78.73
63033;BME280;49121;38.932;-9.018;2023-03-04T02:39:31;111992.50;;;-145.11;78.93
63033;BME280;49121;38.932;-9.018;2023-03-04T02:41:32;111992.50;;;-145.11;79.12
63033;BME280;49121;38.932;-9.018;2023-03-04T02:43:38;111992.50;;;-145.11;79.32
63033;BME280;49121;38.932;-9.018;2023-03-04T02:47:42;111992.50;;;-145.11;79.59
63033;BME280;49121;38.932;-9.018;2023-03-04T02:49:44;111992.50;;;-145.11;79.82
63033;BME280;49121;38.932;-9.018;2023-03-04T02:51:46;111992.50;;;-145.11;80.03
63033;BME280;49121;38.932;-9.018;2023-03-04T02:53:49;111992.50;;;-145.11;80.14
63033;BME280;49121;38.932;-9.018;2023-03-04T02:55:50;111992.50;;;-145.11;80.18
63033;BME280;49121;38.932;-9.018;2023-03-04T02:58:10;111992.50;;;-145.11;80.15
63033;BME280;49121;38.932;-9.018;2023-03-04T03:00:11;111992.50;;;-145.11;79.89
63033;BME280;49121;38.932;-9.018;2023-03-04T03:02:14;111992.50;;;-145.11;80.20
63033;BME280;49121;38.932;-9.018;2023-03-04T03:04:15;111992.50;;;-145.11;80.33
63033;BME280;49121;38.932;-9.018;2023-03-04T03:06:18;111992.50;;;-145.11;80.21
63033;BME280;49121;38.932;-9.018;2023-03-04T03:08:18;111992.50;;;-145.11;80.11
63033;BME280;49121;38.932;-9.018;2023-03-04T03:10:19;111992.50;;;-145.11;80.03
63033;BME280;49121;38.932;-9.018;2023-03-04T03:12:20;111992.50;;;-145.11;80.11
63033;BME280;49121;38.932;-9.018;2023-03-04T03:14:21;111992.50;;;-145.11;80.10
63033;BME280;49121;38.932;-9.018;2023-03-04T03:16:21;111992.50;;;-145.11;80.10
63033;BME280;49121;38.932;-9.018;2023-03-04T03:18:40;111992.50;;;-145.11;79.92
63033;BME280;49121;38.932;-9.018;2023-03-04T03:20:41;111992.50;;;-145.11;80.02
63033;BME280;49121;38.932;-9.018;2023-03-04T03:23:00;111992.50;;;-145.11;79.83
63033;BME280;49121;38.932;-9.018;2023-03-04T03:25:01;111992.50;;;-145.11;79.79
63033;BME280;49121;38.932;-9.018;2023-03-04T03:27:02;111992.50;;;-145.11;79.70
63033;BME280;49121;38.932;-9.018;2023-03-04T03:29:02;111992.50;;;-145.11;79.80
63033;BME280;49121;38.932;-9.018;2023-03-04T03:31:03;111992.50;;;-145.11;79.63
63033;BME280;49121;38.932;-9.018;2023-03-04T03:33:04;111992.50;;;-145.11;79.41
63033;BME280;49121;38.932;-9.018;2023-03-04T03:35:05;111992.50;;;-145.11;79.81
63033;BME280;49121;38.932;-9.018;2023-03-04T03:37:06;111992.50;;;-145.11;79.79
63033;BME280;49121;38.932;-9.018;2023-03-04T03:39:06;111992.50;;;-145.11;80.10
63033;BME280;49121;38.932;-9.018;2023-03-04T03:41:07;111992.50;;;-145.11;80.10
63033;BME280;49121;38.932;-9.018;2023-03-04T03:43:07;111992.50;;;-145.11;80.35
63033;BME280;49121;38.932;-9.018;2023-03-04T03:45:11;111992.50;;;-145.11;80.18
63033;BME280;49121;38.932;-9.018;2023-03-04T03:47:12;111992.50;;;-145.11;80.46
63033;BME280;49121;38.932;-9.018;2023-03-04T03:49:12;111992.50;;;-145.11;80.33
63033;BME280;49121;38.932;-9.018;2023-03-04T03:51:14;111992.50;;;-145.11;80.33
63033;BME280;49121;38.932;-9.018;2023-03-04T03:53:14;111992.50;;;-145.11;80.39
63033;BME280;49121;38.932;-9.018;2023-03-04T03:55:15;111992.50;;;-145.11;80.63
63033;BME280;49121;38.932;-9.018;2023-03-04T03:57:15;111992.50;;;-145.11;80.42
63033;BME280;49121;38.932;-9.018;2023-03-04T03:59:16;111992.50;;;-145.11;80.35
63033;BME280;49121;38.932;-9.018;2023-03-04T04:01:17;111992.50;;;-145.11;80.60
63033;BME280;49121;38.932;-9.018;2023-03-04T04:03:20;111992.50;;;-145.11;80.85
63033;BME280;49121;38.932;-9.018;2023-03-04T04:05:21;111992.50;;;-145.11;81.08
63033;BME280;49121;38.932;-9.018;2023-03-04T04:07:24;111992.50;;;-145.11;81.01
63033;BME280;49121;38.932;-9.018;2023-03-04T04:09:25;111992.50;;;-145.11;81.48
63033;BME280;49121;38.932;-9.018;2023-03-04T04:11:26;111992.50;;;-145.11;81.90
63033;BME280;49121;38.932;-9.018;2023-03-04T04:13:27;111992.50;;;-145.11;82.21
63033;BME280;49121;38.932;-9.018;2023-03-04T04:15:28;111992.50;;;-145.11;83.37
63033;BME280;49121;38.932;-9.018;2023-03-04T04:17:28;111992.50;;;-145.11;84.22
63033;BME280;49121;38.932;-9.018;2023-03-04T04:19:29;111992.50;;;-145.11;84.59
63033;BME280;49121;38.932;-9.018;2023-03-04T04:21:29;111992.50;;;-145.11;84.73
63033;BME280;49121;38.932;-9.018;2023-03-04T04:26:13;111992.50;;;-145.11;85.80
63033;BME280;49121;38.932;-9.018;2023-03-04T04:28:13;111992.50;;;-145.11;85.66
63033;BME280;49121;38.932;-9.018;2023-03-04T04:30:14;111992.50;;;-145.11;85.55
63033;BME280;49121;38.932;-9.018;2023-03-04T04:32:15;111992.50;;;-145.11;86.38
63033;BME280;49121;38.932;-9.018;2023-03-04T04:34:15;111992.50;;;-145.11;85.88
63033;BME280;49121;38.932;-9.018;2023-03-04T04:36:16;111992.50;;;-145.11;85.77
63033;BME280;49121;38.932;-9.018;2023-03-04T04:38:17;111992.50;;;-145.11;86.08
63033;BME280;49121;38.932;-9.018;2023-03-04T04:40:17;111992.50;;;-145.11;85.70
63033;BME280;49121;38.932;-9.018;2023-03-04T04:42:23;111992.50;;;-145.11;85.82
63033;BME280;49121;38.932;-9.018;2023-03-04T04:44:24;111992.50;;;-145.11;85.65
63033;BME280;49121;38.932;-9.018;2023-03-04T04:46:25;111992.50;;;-145.11;85.55
63033;BME280;49121;38.932;-9.018;2023-03-04T04:48:26;111992.50;;;-145.11;85.88
63033;BME280;49121;38.932;-9.018;2023-03-04T04:50:26;111992.50;;;-145.11;86.47
63033;BME280;49121;38.932;-9.018;2023-03-04T04:52:27;111992.50;;;-145.11;86.34
63033;BME280;49121;38.932;-9.018;2023-03-04T04:54:28;111992.50;;;-145.11;85.85
63033;BME280;49121;38.932;-9.018;2023-03-04T04:56:30;111992.50;;;-145.11;85.69
63033;BME280;49121;38.932;-9.018;2023-03-04T04:58:30;111992.50;;;-145.11;85.74
63033;BME280;49121;38.932;-9.018;2023-03-04T05:00:31;111992.50;;;-145.11;85.96
63033;BME280;49121;38.932;-9.018;2023-03-04T05:02:32;111992.50;;;-145.11;86.18
63033;BME280;49121;38.932;-9.018;2023-03-04T05:04:36;111992.50;;;-145.11;86.22
63033;BME280;49121;38.932;-9.018;2023-03-04T05:06:37;111992.50;;;-145.11;86.39
63033;BME280;49121;38.932;-9.018;2023-03-04T05:08:38;111992.50;;;-145.11;86.49
63033;BME280;49121;38.932;-9.018;2023-03-04T05:10:39;111992.50;;;-145.11;86.69
63033;BME280;49121;38.932;-9.018;2023-03-04T05:12:39;111992.50;;;-145.11;86.69
63033;BME280;49121;38.932;-9.018;2023-03-04T05:14:40;111992.50;;;-145.11;86.94
63033;BME280;49121;38.932;-9.018;2023-03-04T05:16:41;111992.50;;;-145.11;87.17
63033;BME280;49121;38.932;-9.018;2023-03-04T05:18:42;111992.50;;;-145.11;87.38
63033;BME280;49121;38.932;-9.018;2023-03-04T05:20:43;111992.50;;;-145.11;87.74
63033;BME280;49121;38.932;-9.018;2023-03-04T05:22:43;111992.50;;;-145.11;87.99
63033;BME280;49121;38.932;-9.018;2023-03-04T05:24:44;111992.50;;;-145.11;87.96
63033;BME280;49121;38.932;-9.018;2023-03-04T05:26:45;111992.50;;;-145.11;87.86
63033;BME280;49121;38.932;-9.018;2023-03-04T05:28:46;111992.50;;;-145.11;87.52
63033;BME280;49121;38.932;-9.018;2023-03-04T05:33:43;111992.50;;;-145.11;87.14
63033;BME280;49121;38.932;-9.018;2023-03-04T05:35:44;111992.50;;;-145.11;86.87
63033;BME280;49121;38.932;-9.018;2023-03-04T05:37:45;111992.50;;;-145.11;86.59
63033;BME280;49121;38.932;-9.018;2023-03-04T05:39:46;111992.50;;;-145.11;86.74
63033;BME280;49121;38.932;-9.018;2023-03-04T05:41:47;111992.50;;;-145.11;87.04
63033;BME280;49121;38.932;-9.018;2023-03-04T05:43:48;111992.50;;;-145.11;87.57
63033;BME280;49121;38.932;-9.018;2023-03-04T05:45:53;111992.50;;;-145.11;87.73
63033;BME280;49121;38.932;-9.018;2023-03-04T05:47:54;111992.50;;;-145.11;87.48
63033;BME280;49121;38.932;-9.018;2023-03-04T05:49:55;111992.50;;;-145.11;87.83
63033;BME280;49121;38.932;-9.018;2023-03-04T05:52:16;111992.50;;;-145.11;88.07
63033;BME280;49121;38.932;-9.018;2023-03-04T05:54:35;111992.50;;;-145.11;88.66
63033;BME280;49121;38.932;-9.018;2023-03-04T05:56:36;111992.50;;;-145.11;88.46
63033;BME280;49121;38.932;-9.018;2023-03-04T05:58:36;111992.50;;;-145.11;88.30
63033;BME280;49121;38.932;-9.018;2023-03-04T06:00:37;111992.50;;;-145.11;88.52
63033;BME280;49121;38.932;-9.018;2023-03-04T06:02:43;111992.50;;;-145.11;88.73
63033;BME280;49121;38.932;-9.018;2023-03-04T06:04:44;111992.50;;;-145.11;89.08
63033;BME280;49121;38.932;-9.018;2023-03-04T06:06:44;111992.50;;;-145.11;89.31
63033;BME280;49121;38.932;-9.018;2023-03-04T06:08:46;111992.50;;;-145.11;89.60
63033;BME280;49121;38.932;-9.018;2023-03-04T06:10:47;111992.50;;;-145.11;89.88
63033;BME280;49121;38.932;-9.018;2023-03-04T06:12:52;111992.50;;;-145.11;89.61
63033;BME280;49121;38.932;-9.018;2023-03-04T06:15:11;111992.50;;;-145.11;89.66
63033;BME280;49121;38.932;-9.018;2023-03-04T06:17:12;111992.50;;;-145.11;89.36
63033;BME280;49121;38.932;-9.018;2023-03-04T06:19:12;111992.50;;;-145.11;89.46
63033;BME280;49121;38.932;-9.018;2023-03-04T06:21:13;111992.50;;;-145.11;89.59
63033;BME280;49121;38.932;-9.018;2023-03-04T06:23:14;111992.50;;;-145.11;89.57
63033;BME280;49121;38.932;-9.018;2023-03-04T06:25:16;111992.50;;;-145.11;89.66
63033;BME280;49121;38.932;-9.018;2023-03-04T06:27:17;111992.50;;;-145.11;89.55
63033;BME280;49121;38.932;-9.018;2023-03-04T06:29:18;111992.50;;;-145.11;89.74
63033;BME280;49121;38.932;-9.018;2023-03-04T06:31:19;111992.50;;;-145.11;89.81
63033;BME280;49121;38.932;-9.018;2023-03-04T06:33:23;111992.50;;;-145.11;89.82
63033;BME280;49121;38.932;-9.018;2023-03-04T06:35:23;111992.50;;;-145.11;90.01
63033;BME280;49121;38.932;-9.018;2023-03-04T06:37:24;111992.50;;;-145.11;89.99
63033;BME280;49121;38.932;-9.018;2023-03-04T06:39:25;111992.50;;;-145.11;90.27
63033;BME280;49121;38.932;-9.018;2023-03-04T06:41:26;111992.50;;;-145.11;89.90
63033;BME280;49121;38.932;-9.018;2023-03-04T06:43:27;111992.50;;;-145.11;90.15
63033;BME280;49121;38.932;-9.018;2023-03-04T06:45:27;111992.50;;;-145.11;89.80
63033;BME280;49121;38.932;-9.018;2023-03-04T06:47:28;111992.50;;;-145.11;89.74
63033;BME280;49121;38.932;-9.018;2023-03-04T06:49:29;111992.50;;;-145.11;90.01
63033;BME280;49121;38.932;-9.018;2023-03-04T06:51:48;111992.50;;;-145.11;89.98
63033;BME280;49121;38.932;-9.018;2023-03-04T06:54:08;111992.50;;;-145.11;89.91
63033;BME280;49121;38.932;-9.018;2023-03-04T06:56:10;111992.50;;;-145.11;90.05
63033;BME280;49121;38.932;-9.018;2023-03-04T06:58:17;111992.50;;;-145.11;89.84
63033;BME280;49121;38.932;-9.018;2023-03-04T07:00:18;111992.50;;;-145.11;89.67
63033;BME280;49121;38.932;-9.018;2023-03-04T07:02:19;111992.50;;;-145.11;89.42
63033;BME280;49121;38.932;-9.018;2023-03-04T07:04:19;111992.50;;;-145.11;89.41
63033;BME280;49121;38.932;-9.018;2023-03-04T07:06:26;111992.50;;;-145.11;89.55
63033;BME280;49121;38.932;-9.018;2023-03-04T07:08:27;111992.50;;;-145.11;89.67
63033;BME280;49121;38.932;-9.018;2023-03-04T07:10:28;111992.50;;;-145.11;89.22
63033;BME280;49121;38.932;-9.018;2023-03-04T07:12:29;111992.50;;;-145.11;88.93
63033;BME280;49121;38.932;-9.018;2023-03-04T07:14:30;111992.50;;;-145.11;88.78
63033;BME280;49121;38.932;-9.018;2023-03-04T07:16:31;111992.50;;;-145.11;88.49
63033;BME280;49121;38.932;-9.018;2023-03-04T07:18:31;111992.50;;;-145.11;88.66
63033;BME280;49121;38.932;-9.018;2023-03-04T07:20:32;111992.50;;;-145.11;88.16
63033;BME280;49121;38.932;-9.018;2023-03-04T07:22:33;111992.50;;;-145.11;88.36
63033;BME280;49121;38.932;-9.018;2023-03-04T07:24:33;111992.50;;;-145.11;88.29
63033;BME280;49121;38.932;-9.018;2023-03-04T07:26:34;111992.50;;;-145.11;87.71
63033;BME280;49121;38.932;-9.018;2023-03-04T07:28:37;111992.50;;;-145.11;87.53
63033;BME280;49121;38.932;-9.018;2023-03-04T07:35:36;111992.50;;;-145.11;87.27
63033;BME280;49121;38.932;-9.018;2023-03-04T07:37:36;111992.50;;;-145.11;86.92
63033;BME280;49121;38.932;-9.018;2023-03-04T07:39:39;111992.50;;;-145.11;86.50
63033;BME280;49121;38.932;-9.018;2023-03-04T07:41:40;111992.50;;;-145.11;86.72
63033;BME280;49121;38.932;-9.018;2023-03-04T07:43:41;111992.50;;;-145.11;86.36
63033;BME280;49121;38.932;-9.018;2023-03-04T07:45:42;111992.50;;;-145.11;86.04
63033;BME280;49121;38.932;-9.018;2023-03-04T07:47:42;111992.50;;;-145.11;85.32
63033;BME280;49121;38.932;-9.018;2023-03-04T07:49:43;111992.50;;;-145.11;85.55
63033;BME280;49121;38.932;-9.018;2023-03-04T07:51:44;111992.50;;;-145.11;85.81
63033;BME280;49121;38.932;-9.018;2023-03-04T07:53:47;111992.50;;;-145.11;86.01
63033;BME280;49121;38.932;-9.018;2023-03-04T07:55:48;111992.50;;;-145.11;86.30
63033;BME280;49121;38.932;-9.018;2023-03-04T07:57:49;111992.50;;;-145.11;86.50
63033;BME280;49121;38.932;-9.018;2023-03-04T08:00:10;111992.50;;;-145.11;86.45
63033;BME280;49121;38.932;-9.018;2023-03-04T08:02:14;111992.50;;;-145.11;86.37
63033;BME280;49121;38.932;-9.018;2023-03-04T08:04:15;111992.50;;;-145.11;86.27
63033;BME280;49121;38.932;-9.018;2023-03-04T08:06:17;111992.50;;;-145.11;85.71
63033;BME280;49121;38.932;-9.018;2023-03-04T08:08:18;111992.50;;;-145.11;86.01
63033;BME280;49121;38.932;-9.018;2023-03-04T08:10:19;111992.50;;;-145.11;86.63
63033;BME280;49121;38.932;-9.018;2023-03-04T08:12:20;111992.50;;;-145.11;86.57
63033;BME280;49121;38.932;-9.018;2023-03-04T08:14:21;111992.50;;;-145.11;86.37
63033;BME280;49121;38.932;-9.018;2023-03-04T08:16:22;111992.50;;;-145.11;86.20
63033;BME280;49121;38.932;-9.018;2023-03-04T08:18:24;111992.50;;;-145.11;85.95
63033;BME280;49121;38.932;-9.018;2023-03-04T08:20:43;111992.50;;;-145.11;85.51
63033;BME280;49121;38.932;-9.018;2023-03-04T08:22:44;111992.50;;;-145.11;85.14
63033;BME280;49121;38.932;-9.018;2023-03-04T08:24:44;111992.50;;;-145.11;85.10
63033;BME280;49121;38.932;-9.018;2023-03-04T08:26:47;111992.50;;;-145.11;85.53
63033;BME280;49121;38.932;-9.018;2023-03-04T08:28:49;111992.50;;;-145.11;85.94
63033;BME280;49121;38.932;-9.018;2023-03-04T08:30:53;111992.50;;;-145.11;85.94
63033;BME280;49121;38.932;-9.018;2023-03-04T08:32:54;111992.50;;;-145.11;86.03
63033;BME280;49121;38.932;-9.018;2023-03-04T08:34:55;111992.50;;;-145.11;85.75
63033;BME280;49121;38.932;-9.018;2023-03-04T08:36:56;111992.50;;;-145.11;85.88
63033;BME280;49121;38.932;-9.018;2023-03-04T08:38:56;111992.50;;;-145.11;86.06
63033;BME280;49121;38.932;-9.018;2023-03-04T08:40:58;111992.50;;;-145.11;86.08
63033;BME280;49121;38.932;-9.018;2023-03-04T08:42:59;111992.50;;;-145.11;85.87
63033;BME280;49121;38.932;-9.018;2023-03-04T08:45:00;111992.50;;;-145.11;85.86
63033;BME280;49121;38.932;-9.018;2023-03-04T08:47:05;111992.50;;;-145.11;85.57
63033;BME280;49121;38.932;-9.018;2023-03-04T08:49:10;111992.50;;;-145.11;85.28
63033;BME280;49121;38.932;-9.018;2023-03-04T08:51:14;111992.50;;;-145.11;85.56
63033;BME280;49121;38.932;-9.018;2023-03-04T08:53:17;111992.50;;;-145.11;85.39
63033;BME280;49121;38.932;-9.018;2023-03-04T08:55:20;111992.50;;;-145.11;85.33
63033;BME280;49121;38.932;-9.018;2023-03-04T08:57:21;111992.50;;;-145.11;85.25
63033;BME280;49121;38.932;-9.018;2023-03-04T08:59:21;111992.50;;;-145.11;85.25
63033;BME280;49121;38.932;-9.018;2023-03-04T09:01:22;111992.50;;;-145.11;84.84
63033;BME280;49121;38.932;-9.018;2023-03-04T09:03:28;111992.50;;;-145.11;84.74
63033;BME280;49121;38.932;-9.018;2023-03-04T09:05:30;111992.50;;;-145.11;84.40
63033;BME280;49121;38.932;-9.018;2023-03-04T09:07:31;111992.50;;;-145.11;83.94
63033;BME280;49121;38.932;-9.018;2023-03-04T09:09:31;111992.50;;;-145.11;83.67
63033;BME280;49121;38.932;-9.018;2023-03-04T09:11:32;111992.50;;;-145.11;83.56
63033;BME280;49121;38.932;-9.018;2023-03-04T09:13:33;111992.50;;;-145.11;83.67
63033;BME280;49121;38.932;-9.018;2023-03-04T09:15:34;111992.50;;;-145.11;82.97
63033;BME280;49121;38.932;-9.018;2023-03-04T09:17:35;111992.50;;;-145.11;83.02
63033;BME280;49121;38.932;-9.018;2023-03-04T09:19:36;111992.50;;;-145.11;82.98
63033;BME280;49121;38.932;-9.018;2023-03-04T09:21:37;111992.50;;;-145.11;82.65
63033;BME280;49121;38.932;-9.018;2023-03-04T09:23:38;111992.50;;;-145.11;82.68
63033;BME280;49121;38.932;-9.018;2023-03-04T09:25:40;111992.50;;;-145.11;81.98
63033;BME280;49121;38.932;-9.018;2023-03-04T09:27:42;111992.50;;;-145.11;81.04
63033;BME280;49121;38.932;-9.018;2023-03-04T09:29:43;111992.50;;;-145.11;81.14
63033;BME280;49121;38.932;-9.018;2023-03-04T09:31:45;111992.50;;;-145.11;80.82
63033;BME280;49121;38.932;-9.018;2023-03-04T09:33:46;111992.50;;;-145.11;80.44
63033;BME280;49121;38.932;-9.018;2023-03-04T09:35:46;111992.50;;;-145.11;80.62
63033;BME280;49121;38.932;-9.018;2023-03-04T09:37:49;111992.50;;;-145.11;80.38
63033;BME280;49121;38.932;-9.018;2023-03-04T09:39:50;111992.50;;;-145.11;80.13
63033;BME280;49121;38.932;-9.018;2023-03-04T09:41:53;111992.50;;;-145.11;79.42
63033;BME280;49121;38.932;-9.018;2023-03-04T09:46:38;111992.50;;;-145.11;77.89
63033;BME280;49121;38.932;-9.018;2023-03-04T09:48:59;111992.50;;;-145.11;78.17
63033;BME280;49121;38.932;-9.018;2023-03-04T09:53:52;111992.50;;;-145.11;77.70
63033;BME280;49121;38.932;-9.018;2023-03-04T09:55:55;111992.50;;;-145.11;77.42
63033;BME280;49121;38.932;-9.018;2023-03-04T10:00:44;111992.50;;;-145.11;76.22
63033;BME280;49121;38.932;-9.018;2023-03-04T10:05:19;111992.50;;;-145.11;75.25
63033;BME280;49121;38.932;-9.018;2023-03-04T10:07:42;111992.50;;;-145.11;74.33
63033;BME280;49121;38.932;-9.018;2023-03-04T10:09:50;111992.50;;;-145.11;72.73
63033;BME280;49121;38.932;-9.018;2023-03-04T10:12:05;111992.50;;;-145.11;72.42
63033;BME280;49121;38.932;-9.018;2023-03-04T10:14:35;111992.50;;;-145.11;71.65
63033;BME280;49121;38.932;-9.018;2023-03-04T10:16:41;111992.50;;;-145.11;69.77
63033;BME280;49121;38.932;-9.018;2023-03-04T10:19:18;111992.50;;;-145.11;68.52
63033;BME280;49121;38.932;-9.018;2023-03-04T10:21:27;111992.50;;;-145.11;67.06
63033;BME280;49121;38.932;-9.018;2023-03-04T10:23:32;111992.50;;;-145.11;65.77
63033;BME280;49121;38.932;-9.018;2023-03-04T10:25:34;111992.50;;;-145.11;66.25
63033;BME280;49121;38.932;-9.018;2023-03-04T10:27:36;111992.50;;;-145.11;65.37
63033;BME280;49121;38.932;-9.018;2023-03-04T10:29:37;111992.50;;;-145.11;64.09
63033;BME280;49121;38.932;-9.018;2023-03-04T10:31:41;111992.50;;;-145.11;63.15
63033;BME280;49121;38.932;-9.018;2023-03-04T10:33:43;111992.50;;;-145.11;63.31
63033;BME280;49121;38.932;-9.018;2023-03-04T10:37:53;111992.50;;;-145.11;60.61
63033;BME280;49121;38.932;-9.018;2023-03-04T10:39:53;111992.50;;;-145.11;61.37
63033;BME280;49121;38.932;-9.018;2023-03-04T10:42:03;111992.50;;;-145.11;61.77
63033;BME280;49121;38.932;-9.018;2023-03-04T10:46:10;111992.50;;;-145.11;61.73
63033;BME280;49121;38.932;-9.018;2023-03-04T10:48:26;111992.50;;;-145.11;59.90
63033;BME280;49121;38.932;-9.018;2023-03-04T10:50:27;111992.50;;;-145.11;59.22
63033;BME280;49121;38.932;-9.018;2023-03-04T10:52:35;111992.50;;;-145.11;59.69
63033;BME280;49121;38.932;-9.018;2023-03-04T10:54:42;111992.50;;;-145.11;60.63